sensor_id;sensor_type;location;lat;lon;timestamp;P1;durP1;ratioP1;P2;durP2;ratioP2
32760;SDS011;19126;47.472;7.850;2023-04-05T00:00:11;10.45;;;6.03;;
32760;SDS011;19126;47.472;7.850;2023-04-05T00:02:39;10.00;;;6.78;;
32760;SDS011;19126;47.472;7.850;2023-04-05T00:05:07;12.57;;;6.25;;
32760;SDS011;19126;47.472;7.850;2023-04-05T00:07:37;10.95;;;6.35;;
32760;SDS011;19126;47.472;7.850;2023-04-05T00:10:05;12.40;;;6.38;;
32760;SDS011;19126;47.472;7.850;2023-04-05T00:12:33;9.07;;;6.15;;
32760;SDS011;19126;47.472;7.850;2023-04-05T00:15:00;9.88;;;7.10;;
32760;SDS011;19126;47.472;7.850;2023-04-05T00:17:28;8.40;;;6.30;;
32760;SDS011;19126;47.472;7.850;2023-04-05T00:19:55;11.65;;;7.00;;
32760;SDS011;19126;47.472;7.850;2023-04-05T00:22:23;13.35;;;7.47;;
32760;SDS011;19126;47.472;7.850;2023-04-05T00:24:52;10.57;;;6.28;;
32760;SDS011;19126;47.472;7.850;2023-04-05T00:27:19;12.30;;;5.80;;
32760;SDS011;19126;47.472;7.850;2023-04-05T00:29:46;12.75;;;6.90;;
32760;SDS011;19126;47.472;7.850;2023-04-05T00:32:14;11.98;;;6.35;;
32760;SDS011;19126;47.472;7.850;2023-04-05T00:34:41;13.15;;;6.72;;
32760;SDS011;19126;47.472;7.850;2023-04-05T00:37:08;12.00;;;6.38;;
32760;SDS011;19126;47.472;7.850;2023-04-05T00:39:37;10.95;;;7.05;;
32760;SDS011;19126;47.472;7.850;2023-04-05T00:42:06;13.00;;;7.15;;
32760;SDS011;19126;47.472;7.850;2023-04-05T00:44:34;11.43;;;7.13;;
32760;SDS011;19126;47.472;7.850;2023-04-05T00:47:01;8.63;;;5.93;;
32760;SDS011;19126;47.472;7.850;2023-04-05T00:49:31;10.55;;;5.82;;
32760;SDS011;19126;47.472;7.850;2023-04-05T00:52:00;12.82;;;6.15;;
32760;SDS011;19126;47.472;7.850;2023-04-05T00:54:28;16.10;;;6.82;;
32760;SDS011;19126;47.472;7.850;2023-04-05T00:56:56;10.30;;;6.45;;
32760;SDS011;19126;47.472;7.850;2023-04-05T00:59:25;8.25;;;6.00;;
32760;SDS011;19126;47.472;7.850;2023-04-05T01:01:54;12.48;;;6.97;;
32760;SDS011;19126;47.472;7.850;2023-04-05T01:04:27;12.55;;;7.22;;
32760;SDS011;19126;47.472;7.850;2023-04-05T01:09:36;17.30;;;6.72;;
32760;SDS011;19126;47.472;7.850;2023-04-05T01:12:15;9.00;;;6.82;;
32760;SDS011;19126;47.472;7.850;2023-04-05T01:14:47;11.93;;;7.18;;
32760;SDS011;19126;47.472;7.850;2023-04-05T01:17:16;12.73;;;6.63;;
32760;SDS011;19126;47.472;7.850;2023-04-05T01:19:46;11.52;;;6.95;;
32760;SDS011;19126;47.472;7.850;2023-04-05T01:25:55;10.23;;;6.60;;
32760;SDS011;19126;47.472;7.850;2023-04-05T01:28:54;10.27;;;6.65;;
32760;SDS011;19126;47.472;7.850;2023-04-05T01:31:39;9.07;;;6.15;;
32760;SDS011;19126;47.472;7.850;2023-04-05T01:34:14;12.18;;;7.07;;
32760;SDS011;19126;47.472;7.850;2023-04-05T01:36:52;10.48;;;6.70;;
32760;SDS011;19126;47.472;7.850;2023-04-05T01:39:27;10.25;;;6.63;;
32760;SDS011;19126;47.472;7.850;2023-04-05T01:41:57;11.50;;;6.85;;
32760;SDS011;19126;47.472;7.850;2023-04-05T01:44:25;17.35;;;6.95;;
32760;SDS011;19126;47.472;7.850;2023-04-05T01:46:54;13.70;;;6.85;;
32760;SDS011;19126;47.472;7.850;2023-04-05T01:49:21;10.02;;;5.93;;
32760;SDS011;19126;47.472;7.850;2023-04-05T01:51:49;10.30;;;6.97;;
32760;SDS011;19126;47.472;7.850;2023-04-05T01:54:16;11.85;;;6.78;;
32760;SDS011;19126;47.472;7.850;2023-04-05T01:56:44;11.15;;;7.07;;
32760;SDS011;19126;47.472;7.850;2023-04-05T01:59:11;9.02;;;6.78;;
32760;SDS011;19126;47.472;7.850;2023-04-05T02:01:39;11.20;;;7.00;;
32760;SDS011;19126;47.472;7.850;2023-04-05T02:04:07;9.07;;;6.60;;
32760;SDS011;19126;47.472;7.850;2023-04-05T02:06:35;11.52;;;6.70;;
32760;SDS011;19126;47.472;7.850;2023-04-05T02:09:02;14.23;;;6.95;;
32760;SDS011;19126;47.472;7.850;2023-04-05T02:11:29;8.77;;;6.50;;
32760;SDS011;19126;47.472;7.850;2023-04-05T02:13:57;9.25;;;5.90;;
32760;SDS011;19126;47.472;7.850;2023-04-05T02:16:24;14.07;;;8.05;;
32760;SDS011;19126;47.472;7.850;2023-04-05T02:18:51;10.18;;;6.43;;
32760;SDS011;19126;47.472;7.850;2023-04-05T02:21:23;10.15;;;6.40;;
32760;SDS011;19126;47.472;7.850;2023-04-05T02:23:51;13.68;;;5.85;;
32760;SDS011;19126;47.472;7.850;2023-04-05T02:26:18;11.65;;;6.75;;
32760;SDS011;19126;47.472;7.850;2023-04-05T02:28:46;11.60;;;6.57;;
32760;SDS011;19126;47.472;7.850;2023-04-05T02:31:13;15.98;;;6.75;;
32760;SDS011;19126;47.472;7.850;2023-04-05T02:33:41;8.75;;;6.38;;
32760;SDS011;19126;47.472;7.850;2023-04-05T02:36:09;12.05;;;8.10;;
32760;SDS011;19126;47.472;7.850;2023-04-05T02:38:39;9.98;;;6.63;;
32760;SDS011;19126;47.472;7.850;2023-04-05T02:41:07;12.75;;;7.70;;
32760;SDS011;19126;47.472;7.850;2023-04-05T02:43:35;11.57;;;7.10;;
32760;SDS011;19126;47.472;7.850;2023-04-05T02:46:03;11.90;;;6.75;;
32760;SDS011;19126;47.472;7.850;2023-04-05T02:48:31;10.85;;;7.13;;
32760;SDS011;19126;47.472;7.850;2023-04-05T02:50:58;13.32;;;7.10;;
32760;SDS011;19126;47.472;7.850;2023-04-05T02:53:25;12.10;;;5.93;;
32760;SDS011;19126;47.472;7.850;2023-04-05T02:55:55;9.35;;;6.95;;
32760;SDS011;19126;47.472;7.850;2023-04-05T02:58:24;15.02;;;7.57;;
32760;SDS011;19126;47.472;7.850;2023-04-05T03:00:52;11.18;;;7.18;;
32760;SDS011;19126;47.472;7.850;2023-04-05T03:03:20;10.38;;;7.03;;
32760;SDS011;19126;47.472;7.850;2023-04-05T03:05:48;10.00;;;6.57;;
32760;SDS011;19126;47.472;7.850;2023-04-05T03:08:25;14.15;;;7.05;;
32760;SDS011;19126;47.472;7.850;2023-04-05T03:10:54;19.73;;;8.63;;
32760;SDS011;19126;47.472;7.850;2023-04-05T03:13:21;16.77;;;9.60;;
32760;SDS011;19126;47.472;7.850;2023-04-05T03:15:52;16.60;;;9.52;;
32760;SDS011;19126;47.472;7.850;2023-04-05T03:18:19;18.60;;;10.10;;
32760;SDS011;19126;47.472;7.850;2023-04-05T03:20:49;19.00;;;10.77;;
32760;SDS011;19126;47.472;7.850;2023-04-05T03:23:21;20.75;;;11.63;;
32760;SDS011;19126;47.472;7.850;2023-04-05T03:25:56;20.13;;;10.38;;
32760;SDS011;19126;47.472;7.850;2023-04-05T03:28:25;24.10;;;11.38;;
32760;SDS011;19126;47.472;7.850;2023-04-05T03:30:53;23.23;;;13.20;;
32760;SDS011;19126;47.472;7.850;2023-04-05T03:33:20;24.90;;;13.88;;
32760;SDS011;19126;47.472;7.850;2023-04-05T03:35:48;22.13;;;11.77;;
32760;SDS011;19126;47.472;7.850;2023-04-05T03:38:15;17.98;;;10.50;;
32760;SDS011;19126;47.472;7.850;2023-04-05T03:40:43;22.58;;;12.27;;
32760;SDS011;19126;47.472;7.850;2023-04-05T03:43:12;19.02;;;10.63;;
32760;SDS011;19126;47.472;7.850;2023-04-05T03:45:39;15.75;;;10.10;;
32760;SDS011;19126;47.472;7.850;2023-04-05T03:48:09;18.83;;;11.25;;
32760;SDS011;19126;47.472;7.850;2023-04-05T03:50:37;19.67;;;11.32;;
32760;SDS011;19126;47.472;7.850;2023-04-05T03:53:04;18.40;;;10.73;;
32760;SDS011;19126;47.472;7.850;2023-04-05T03:55:31;16.52;;;9.85;;
32760;SDS011;19126;47.472;7.850;2023-04-05T03:57:59;18.35;;;10.75;;
32760;SDS011;19126;47.472;7.850;2023-04-05T04:00:27;21.17;;;10.27;;
32760;SDS011;19126;47.472;7.850;2023-04-05T04:02:55;13.05;;;8.95;;
32760;SDS011;19126;47.472;7.850;2023-04-05T04:05:22;13.30;;;8.07;;
32760;SDS011;19126;47.472;7.850;2023-04-05T04:07:50;15.43;;;9.38;;
32760;SDS011;19126;47.472;7.850;2023-04-05T04:10:17;14.75;;;9.45;;
32760;SDS011;19126;47.472;7.850;2023-04-05T04:12:44;15.65;;;8.82;;
32760;SDS011;19126;47.472;7.850;2023-04-05T04:15:12;17.40;;;10.20;;
32760;SDS011;19126;47.472;7.850;2023-04-05T04:17:41;16.15;;;8.20;;
32760;SDS011;19126;47.472;7.850;2023-04-05T04:20:09;15.23;;;8.32;;
32760;SDS011;19126;47.472;7.850;2023-04-05T04:22:39;12.75;;;9.15;;
32760;SDS011;19126;47.472;7.850;2023-04-05T04:25:06;14.40;;;8.13;;
32760;SDS011;19126;47.472;7.850;2023-04-05T04:27:36;15.63;;;9.20;;
32760;SDS011;19126;47.472;7.850;2023-04-05T04:30:06;19.73;;;10.52;;
32760;SDS011;19126;47.472;7.850;2023-04-05T04:32:35;24.33;;;11.63;;
32760;SDS011;19126;47.472;7.850;2023-04-05T04:35:19;20.52;;;11.50;;
32760;SDS011;19126;47.472;7.850;2023-04-05T04:37:53;20.50;;;10.48;;
32760;SDS011;19126;47.472;7.850;2023-04-05T04:40:23;20.52;;;10.13;;
32760;SDS011;19126;47.472;7.850;2023-04-05T04:42:54;15.18;;;9.98;;
32760;SDS011;19126;47.472;7.850;2023-04-05T04:45:22;18.58;;;10.18;;
32760;SDS011;19126;47.472;7.850;2023-04-05T04:47:50;17.98;;;8.82;;
32760;SDS011;19126;47.472;7.850;2023-04-05T04:50:20;17.00;;;9.30;;
32760;SDS011;19126;47.472;7.850;2023-04-05T04:52:48;14.57;;;8.95;;
32760;SDS011;19126;47.472;7.850;2023-04-05T04:55:15;15.82;;;10.52;;
32760;SDS011;19126;47.472;7.850;2023-04-05T04:57:42;13.32;;;7.93;;
32760;SDS011;19126;47.472;7.850;2023-04-05T05:00:10;13.75;;;8.65;;
32760;SDS011;19126;47.472;7.850;2023-04-05T05:02:40;14.93;;;8.57;;
32760;SDS011;19126;47.472;7.850;2023-04-05T05:05:08;20.80;;;9.63;;
32760;SDS011;19126;47.472;7.850;2023-04-05T05:07:37;16.83;;;9.93;;
32760;SDS011;19126;47.472;7.850;2023-04-05T05:10:07;22.33;;;10.93;;
32760;SDS011;19126;47.472;7.850;2023-04-05T05:12:36;25.63;;;12.48;;
32760;SDS011;19126;47.472;7.850;2023-04-05T05:15:04;18.50;;;10.93;;
32760;SDS011;19126;47.472;7.850;2023-04-05T05:17:33;36.42;;;15.00;;
32760;SDS011;19126;47.472;7.850;2023-04-05T05:20:01;31.40;;;15.52;;
32760;SDS011;19126;47.472;7.850;2023-04-05T05:22:34;30.70;;;14.88;;
32760;SDS011;19126;47.472;7.850;2023-04-05T05:25:03;25.27;;;14.95;;
32760;SDS011;19126;47.472;7.850;2023-04-05T05:27:32;23.43;;;12.60;;
32760;SDS011;19126;47.472;7.850;2023-04-05T05:30:01;14.85;;;9.52;;
32760;SDS011;19126;47.472;7.850;2023-04-05T05:32:28;20.48;;;11.85;;
32760;SDS011;19126;47.472;7.850;2023-04-05T05:34:56;20.45;;;11.98;;
32760;SDS011;19126;47.472;7.850;2023-04-05T05:37:28;19.38;;;11.85;;
32760;SDS011;19126;47.472;7.850;2023-04-05T05:39:56;19.58;;;11.70;;
32760;SDS011;19126;47.472;7.850;2023-04-05T05:42:26;24.00;;;13.45;;
32760;SDS011;19126;47.472;7.850;2023-04-05T05:44:53;18.83;;;12.15;;
32760;SDS011;19126;47.472;7.850;2023-04-05T05:47:21;20.83;;;12.93;;
32760;SDS011;19126;47.472;7.850;2023-04-05T05:49:48;18.50;;;12.07;;
32760;SDS011;19126;47.472;7.850;2023-04-05T05:52:16;23.40;;;12.52;;
32760;SDS011;19126;47.472;7.850;2023-04-05T05:54:43;22.83;;;14.15;;
32760;SDS011;19126;47.472;7.850;2023-04-05T05:57:11;19.73;;;12.80;;
32760;SDS011;19126;47.472;7.850;2023-04-05T05:59:40;25.92;;;13.50;;
32760;SDS011;19126;47.472;7.850;2023-04-05T06:02:07;23.17;;;14.27;;
32760;SDS011;19126;47.472;7.850;2023-04-05T06:04:35;23.75;;;12.10;;
32760;SDS011;19126;47.472;7.850;2023-04-05T06:07:03;19.55;;;12.25;;
32760;SDS011;19126;47.472;7.850;2023-04-05T06:09:30;18.30;;;12.18;;
32760;SDS011;19126;47.472;7.850;2023-04-05T06:11:59;23.90;;;12.50;;
32760;SDS011;19126;47.472;7.850;2023-04-05T06:14:27;20.85;;;14.10;;
32760;SDS011;19126;47.472;7.850;2023-04-05T06:16:56;26.08;;;15.35;;
32760;SDS011;19126;47.472;7.850;2023-04-05T06:19:24;25.05;;;14.60;;
32760;SDS011;19126;47.472;7.850;2023-04-05T06:21:51;20.35;;;12.63;;
32760;SDS011;19126;47.472;7.850;2023-04-05T06:24:19;20.60;;;13.90;;
32760;SDS011;19126;47.472;7.850;2023-04-05T06:26:46;28.55;;;17.33;;
32760;SDS011;19126;47.472;7.850;2023-04-05T06:29:15;28.80;;;16.58;;
32760;SDS011;19126;47.472;7.850;2023-04-05T06:31:42;26.92;;;15.95;;
32760;SDS011;19126;47.472;7.850;2023-04-05T06:34:12;23.20;;;14.40;;
32760;SDS011;19126;47.472;7.850;2023-04-05T06:36:39;19.42;;;12.70;;
32760;SDS011;19126;47.472;7.850;2023-04-05T06:39:06;23.30;;;13.77;;
32760;SDS011;19126;47.472;7.850;2023-04-05T06:41:34;24.63;;;15.05;;
32760;SDS011;19126;47.472;7.850;2023-04-05T06:44:01;32.47;;;14.90;;
32760;SDS011;19126;47.472;7.850;2023-04-05T06:46:29;25.00;;;15.27;;
32760;SDS011;19126;47.472;7.850;2023-04-05T06:48:56;19.80;;;12.20;;
32760;SDS011;19126;47.472;7.850;2023-04-05T06:51:26;18.58;;;10.73;;
32760;SDS011;19126;47.472;7.850;2023-04-05T06:53:53;16.38;;;9.70;;
32760;SDS011;19126;47.472;7.850;2023-04-05T06:56:21;15.95;;;8.75;;
32760;SDS011;19126;47.472;7.850;2023-04-05T06:58:48;21.88;;;8.75;;
32760;SDS011;19126;47.472;7.850;2023-04-05T07:01:16;16.05;;;7.75;;
32760;SDS011;19126;47.472;7.850;2023-04-05T07:03:43;13.07;;;7.82;;
32760;SDS011;19126;47.472;7.850;2023-04-05T07:06:10;16.73;;;8.48;;
32760;SDS011;19126;47.472;7.850;2023-04-05T07:08:39;17.42;;;8.27;;
32760;SDS011;19126;47.472;7.850;2023-04-05T07:11:07;16.25;;;7.50;;
32760;SDS011;19126;47.472;7.850;2023-04-05T07:13:34;15.25;;;7.90;;
32760;SDS011;19126;47.472;7.850;2023-04-05T07:16:01;18.33;;;8.43;;
32760;SDS011;19126;47.472;7.850;2023-04-05T07:18:29;12.68;;;7.88;;
32760;SDS011;19126;47.472;7.850;2023-04-05T07:20:57;13.82;;;8.25;;
32760;SDS011;19126;47.472;7.850;2023-04-05T07:23:29;12.10;;;7.80;;
32760;SDS011;19126;47.472;7.850;2023-04-05T07:25:59;16.48;;;8.52;;
32760;SDS011;19126;47.472;7.850;2023-04-05T07:28:29;12.63;;;8.30;;
32760;SDS011;19126;47.472;7.850;2023-04-05T07:30:59;22.85;;;8.45;;
32760;SDS011;19126;47.472;7.850;2023-04-05T07:33:26;15.77;;;8.02;;
32760;SDS011;19126;47.472;7.850;2023-04-05T07:35:54;12.20;;;7.38;;
32760;SDS011;19126;47.472;7.850;2023-04-05T07:38:22;13.32;;;6.97;;
32760;SDS011;19126;47.472;7.850;2023-04-05T07:40:49;13.95;;;6.97;;
32760;SDS011;19126;47.472;7.850;2023-04-05T07:43:18;12.35;;;7.35;;
32760;SDS011;19126;47.472;7.850;2023-04-05T07:45:46;13.52;;;6.63;;
32760;SDS011;19126;47.472;7.850;2023-04-05T07:48:13;15.20;;;6.90;;
32760;SDS011;19126;47.472;7.850;2023-04-05T07:50:40;14.48;;;6.07;;
32760;SDS011;19126;47.472;7.850;2023-04-05T07:53:11;9.93;;;5.53;;
32760;SDS011;19126;47.472;7.850;2023-04-05T07:55:42;14.38;;;6.55;;
32760;SDS011;19126;47.472;7.850;2023-04-05T07:58:10;9.73;;;5.97;;
32760;SDS011;19126;47.472;7.850;2023-04-05T08:00:39;9.18;;;5.97;;
32760;SDS011;19126;47.472;7.850;2023-04-05T08:03:07;10.93;;;5.50;;
32760;SDS011;19126;47.472;7.850;2023-04-05T08:05:34;12.18;;;6.15;;
32760;SDS011;19126;47.472;7.850;2023-04-05T08:08:02;15.50;;;6.28;;
32760;SDS011;19126;47.472;7.850;2023-04-05T08:10:29;16.58;;;6.22;;
32760;SDS011;19126;47.472;7.850;2023-04-05T08:12:57;10.77;;;6.22;;
32760;SDS011;19126;47.472;7.850;2023-04-05T08:15:24;17.52;;;7.00;;
32760;SDS011;19126;47.472;7.850;2023-04-05T08:17:53;7.18;;;5.05;;
32760;SDS011;19126;47.472;7.850;2023-04-05T08:20:21;9.77;;;5.72;;
32760;SDS011;19126;47.472;7.850;2023-04-05T08:22:48;9.50;;;5.43;;
32760;SDS011;19126;47.472;7.850;2023-04-05T08:25:15;7.80;;;5.50;;
32760;SDS011;19126;47.472;7.850;2023-04-05T08:27:45;8.85;;;5.40;;
32760;SDS011;19126;47.472;7.850;2023-04-05T08:30:12;8.60;;;5.32;;
32760;SDS011;19126;47.472;7.850;2023-04-05T08:32:44;7.50;;;5.40;;
32760;SDS011;19126;47.472;7.850;2023-04-05T08:35:12;8.80;;;5.00;;
32760;SDS011;19126;47.472;7.850;2023-04-05T08:37:40;9.43;;;4.90;;
32760;SDS011;19126;47.472;7.850;2023-04-05T08:40:10;7.60;;;4.75;;
32760;SDS011;19126;47.472;7.850;2023-04-05T08:42:40;8.50;;;4.80;;
32760;SDS011;19126;47.472;7.850;2023-04-05T08:45:16;7.72;;;4.82;;
32760;SDS011;19126;47.472;7.850;2023-04-05T08:47:49;13.55;;;4.80;;
32760;SDS011;19126;47.472;7.850;2023-04-05T08:50:20;5.80;;;4.60;;
32760;SDS011;19126;47.472;7.850;2023-04-05T08:52:49;8.40;;;4.32;;
32760;SDS011;19126;47.472;7.850;2023-04-05T08:55:16;9.85;;;5.00;;
32760;SDS011;19126;47.472;7.850;2023-04-05T08:57:46;5.88;;;4.45;;
32760;SDS011;19126;47.472;7.850;2023-04-05T09:00:18;8.45;;;4.82;;
32760;SDS011;19126;47.472;7.850;2023-04-05T09:02:49;8.20;;;4.55;;
32760;SDS011;19126;47.472;7.850;2023-04-05T09:05:22;10.27;;;4.95;;
32760;SDS011;19126;47.472;7.850;2023-04-05T09:07:50;9.10;;;4.75;;
32760;SDS011;19126;47.472;7.850;2023-04-05T09:10:19;9.57;;;4.68;;
32760;SDS011;19126;47.472;7.850;2023-04-05T09:12:47;4.97;;;4.10;;
32760;SDS011;19126;47.472;7.850;2023-04-05T09:15:15;8.70;;;5.43;;
32760;SDS011;19126;47.472;7.850;2023-04-05T09:17:45;10.93;;;5.70;;
32760;SDS011;19126;47.472;7.850;2023-04-05T09:20:13;7.97;;;4.60;;
32760;SDS011;19126;47.472;7.850;2023-04-05T09:22:42;7.75;;;4.78;;
32760;SDS011;19126;47.472;7.850;2023-04-05T09:25:11;9.32;;;5.18;;
32760;SDS011;19126;47.472;7.850;2023-04-05T09:28:02;8.07;;;5.10;;
32760;SDS011;19126;47.472;7.850;2023-04-05T09:30:32;8.63;;;4.95;;
32760;SDS011;19126;47.472;7.850;2023-04-05T09:33:01;16.10;;;5.38;;
32760;SDS011;19126;47.472;7.850;2023-04-05T09:35:32;9.40;;;5.10;;
32760;SDS011;19126;47.472;7.850;2023-04-05T09:38:04;9.65;;;5.70;;
32760;SDS011;19126;47.472;7.850;2023-04-05T09:40:39;8.98;;;5.07;;
32760;SDS011;19126;47.472;7.850;2023-04-05T09:43:08;10.95;;;5.95;;
32760;SDS011;19126;47.472;7.850;2023-04-05T09:45:40;9.95;;;5.30;;
32760;SDS011;19126;47.472;7.850;2023-04-05T09:48:10;7.68;;;4.60;;
32760;SDS011;19126;47.472;7.850;2023-04-05T09:50:37;8.10;;;4.72;;
32760;SDS011;19126;47.472;7.850;2023-04-05T09:53:09;6.82;;;4.80;;
32760;SDS011;19126;47.472;7.850;2023-04-05T09:55:42;11.13;;;4.55;;
32760;SDS011;19126;47.472;7.850;2023-04-05T09:58:10;10.35;;;5.00;;
32760;SDS011;19126;47.472;7.850;2023-04-05T10:00:44;10.57;;;5.35;;
32760;SDS011;19126;47.472;7.850;2023-04-05T10:03:17;7.32;;;4.88;;
32760;SDS011;19126;47.472;7.850;2023-04-05T10:05:45;8.30;;;5.13;;
32760;SDS011;19126;47.472;7.850;2023-04-05T10:08:22;9.02;;;4.85;;
32760;SDS011;19126;47.472;7.850;2023-04-05T10:10:49;11.27;;;4.95;;
32760;SDS011;19126;47.472;7.850;2023-04-05T10:13:20;9.18;;;5.55;;
32760;SDS011;19126;47.472;7.850;2023-04-05T10:15:48;9.15;;;4.80;;
32760;SDS011;19126;47.472;7.850;2023-04-05T10:18:20;8.95;;;4.30;;
32760;SDS011;19126;47.472;7.850;2023-04-05T10:20:56;9.57;;;4.72;;
32760;SDS011;19126;47.472;7.850;2023-04-05T10:23:27;9.50;;;5.40;;
32760;SDS011;19126;47.472;7.850;2023-04-05T10:26:02;7.22;;;4.20;;
32760;SDS011;19126;47.472;7.850;2023-04-05T10:28:39;7.75;;;4.93;;
32760;SDS011;19126;47.472;7.850;2023-04-05T10:31:14;6.88;;;4.78;;
32760;SDS011;19126;47.472;7.850;2023-04-05T10:33:54;8.35;;;4.75;;
32760;SDS011;19126;47.472;7.850;2023-04-05T10:36:32;14.95;;;4.75;;
32760;SDS011;19126;47.472;7.850;2023-04-05T10:39:15;11.63;;;4.95;;
32760;SDS011;19126;47.472;7.850;2023-04-05T10:41:50;9.00;;;4.60;;
32760;SDS011;19126;47.472;7.850;2023-04-05T10:44:21;6.20;;;4.53;;
32760;SDS011;19126;47.472;7.850;2023-04-05T10:46:49;7.03;;;4.82;;
32760;SDS011;19126;47.472;7.850;2023-04-05T10:49:26;7.25;;;4.65;;
32760;SDS011;19126;47.472;7.850;2023-04-05T10:52:02;7.03;;;4.20;;
32760;SDS011;19126;47.472;7.850;2023-04-05T10:54:33;9.30;;;4.90;;
32760;SDS011;19126;47.472;7.850;2023-04-05T10:57:02;12.75;;;4.25;;
32760;SDS011;19126;47.472;7.850;2023-04-05T10:59:32;6.43;;;4.25;;
32760;SDS011;19126;47.472;7.850;2023-04-05T11:02:03;10.65;;;5.40;;
32760;SDS011;19126;47.472;7.850;2023-04-05T11:04:31;8.80;;;4.65;;
32760;SDS011;19126;47.472;7.850;2023-04-05T11:07:09;10.18;;;4.82;;
32760;SDS011;19126;47.472;7.850;2023-04-05T11:09:49;8.98;;;5.55;;
32760;SDS011;19126;47.472;7.850;2023-04-05T11:12:29;9.48;;;4.90;;
32760;SDS011;19126;47.472;7.850;2023-04-05T11:15:34;7.18;;;4.90;;
32760;SDS011;19126;47.472;7.850;2023-04-05T11:18:07;9.57;;;4.40;;
32760;SDS011;19126;47.472;7.850;2023-04-05T11:20:44;6.55;;;3.85;;
32760;SDS011;19126;47.472;7.850;2023-04-05T11:23:16;9.27;;;4.75;;
32760;SDS011;19126;47.472;7.850;2023-04-05T11:25:50;17.63;;;4.88;;
32760;SDS011;19126;47.472;7.850;2023-04-05T11:28:23;8.32;;;4.70;;
32760;SDS011;19126;47.472;7.850;2023-04-05T11:30:56;9.52;;;4.60;;
32760;SDS011;19126;47.472;7.850;2023-04-05T11:33:55;7.32;;;5.13;;
32760;SDS011;19126;47.472;7.850;2023-04-05T11:36:36;11.25;;;4.75;;
32760;SDS011;19126;47.472;7.850;2023-04-05T11:41:54;7.53;;;5.13;;
32760;SDS011;19126;47.472;7.850;2023-04-05T11:44:26;8.07;;;5.13;;
32760;SDS011;19126;47.472;7.850;2023-04-05T11:46:56;14.77;;;5.68;;
32760;SDS011;19126;47.472;7.850;2023-04-05T11:49:23;11.52;;;4.75;;
32760;SDS011;19126;47.472;7.850;2023-04-05T11:51:51;12.45;;;4.45;;
32760;SDS011;19126;47.472;7.850;2023-04-05T11:54:29;7.07;;;4.53;;
32760;SDS011;19126;47.472;7.850;2023-04-05T11:56:59;8.35;;;5.05;;
32760;SDS011;19126;47.472;7.850;2023-04-05T11:59:30;7.93;;;5.07;;
32760;SDS011;19126;47.472;7.850;2023-04-05T12:02:00;10.70;;;4.60;;
32760;SDS011;19126;47.472;7.850;2023-04-05T12:04:32;8.73;;;5.00;;
32760;SDS011;19126;47.472;7.850;2023-04-05T12:09:56;9.07;;;5.28;;
32760;SDS011;19126;47.472;7.850;2023-04-05T12:12:35;7.60;;;5.18;;
32760;SDS011;19126;47.472;7.850;2023-04-05T12:15:04;10.18;;;4.70;;
32760;SDS011;19126;47.472;7.850;2023-04-05T12:17:41;12.85;;;5.25;;
32760;SDS011;19126;47.472;7.850;2023-04-05T12:20:12;8.00;;;5.20;;
32760;SDS011;19126;47.472;7.850;2023-04-05T12:22:41;10.70;;;4.88;;
32760;SDS011;19126;47.472;7.850;2023-04-05T12:25:10;9.32;;;5.50;;
32760;SDS011;19126;47.472;7.850;2023-04-05T12:27:40;9.65;;;4.97;;
32760;SDS011;19126;47.472;7.850;2023-04-05T12:30:08;8.32;;;5.60;;
32760;SDS011;19126;47.472;7.850;2023-04-05T12:32:43;8.25;;;5.43;;
32760;SDS011;19126;47.472;7.850;2023-04-05T12:35:14;13.93;;;5.28;;
32760;SDS011;19126;47.472;7.850;2023-04-05T12:37:43;6.93;;;5.38;;
32760;SDS011;19126;47.472;7.850;2023-04-05T12:40:12;7.80;;;4.90;;
32760;SDS011;19126;47.472;7.850;2023-04-05T12:42:43;7.65;;;5.25;;
32760;SDS011;19126;47.472;7.850;2023-04-05T12:45:11;11.55;;;4.90;;
32760;SDS011;19126;47.472;7.850;2023-04-05T12:47:49;7.93;;;5.35;;
32760;SDS011;19126;47.472;7.850;2023-04-05T12:50:24;7.32;;;4.72;;
32760;SDS011;19126;47.472;7.850;2023-04-05T12:52:56;6.47;;;5.03;;
32760;SDS011;19126;47.472;7.850;2023-04-05T12:55:26;14.35;;;5.70;;
32760;SDS011;19126;47.472;7.850;2023-04-05T12:57:59;7.80;;;5.45;;
32760;SDS011;19126;47.472;7.850;2023-04-05T13:00:28;11.17;;;6.10;;
32760;SDS011;19126;47.472;7.850;2023-04-05T13:02:57;8.13;;;5.32;;
32760;SDS011;19126;47.472;7.850;2023-04-05T13:05:25;19.58;;;8.07;;
32760;SDS011;19126;47.472;7.850;2023-04-05T13:07:56;7.90;;;5.43;;
32760;SDS011;19126;47.472;7.850;2023-04-05T13:10:24;12.25;;;5.80;;
32760;SDS011;19126;47.472;7.850;2023-04-05T13:12:52;12.75;;;5.55;;
32760;SDS011;19126;47.472;7.850;2023-04-05T13:15:21;11.73;;;5.70;;
32760;SDS011;19126;47.472;7.850;2023-04-05T13:17:48;12.00;;;6.20;;
32760;SDS011;19126;47.472;7.850;2023-04-05T13:20:17;8.57;;;5.95;;
32760;SDS011;19126;47.472;7.850;2023-04-05T13:22:45;14.82;;;6.70;;
32760;SDS011;19126;47.472;7.850;2023-04-05T13:25:13;8.75;;;5.70;;
32760;SDS011;19126;47.472;7.850;2023-04-05T13:27:43;11.88;;;5.78;;
32760;SDS011;19126;47.472;7.850;2023-04-05T13:30:10;8.43;;;5.85;;
32760;SDS011;19126;47.472;7.850;2023-04-05T13:32:40;9.77;;;6.03;;
32760;SDS011;19126;47.472;7.850;2023-04-05T13:35:07;11.20;;;6.05;;
32760;SDS011;19126;47.472;7.850;2023-04-05T13:37:35;10.00;;;5.95;;
32760;SDS011;19126;47.472;7.850;2023-04-05T13:40:04;10.68;;;5.80;;
32760;SDS011;19126;47.472;7.850;2023-04-05T13:42:33;15.48;;;6.88;;
32760;SDS011;19126;47.472;7.850;2023-04-05T13:45:04;8.38;;;6.28;;
32760;SDS011;19126;47.472;7.850;2023-04-05T13:47:32;17.20;;;6.80;;
32760;SDS011;19126;47.472;7.850;2023-04-05T13:50:01;10.85;;;7.22;;
32760;SDS011;19126;47.472;7.850;2023-04-05T13:52:29;18.35;;;7.68;;
32760;SDS011;19126;47.472;7.850;2023-04-05T13:54:56;10.68;;;6.30;;
32760;SDS011;19126;47.472;7.850;2023-04-05T13:57:24;11.27;;;6.35;;
32760;SDS011;19126;47.472;7.850;2023-04-05T13:59:51;8.88;;;6.30;;
32760;SDS011;19126;47.472;7.850;2023-04-05T14:02:18;11.30;;;7.20;;
32760;SDS011;19126;47.472;7.850;2023-04-05T14:04:49;14.32;;;7.32;;
32760;SDS011;19126;47.472;7.850;2023-04-05T14:07:22;11.85;;;6.63;;
32760;SDS011;19126;47.472;7.850;2023-04-05T14:09:53;11.93;;;6.38;;
32760;SDS011;19126;47.472;7.850;2023-04-05T14:12:21;11.90;;;6.50;;
32760;SDS011;19126;47.472;7.850;2023-04-05T14:14:49;19.40;;;6.78;;
32760;SDS011;19126;47.472;7.850;2023-04-05T14:17:16;8.15;;;6.82;;
32760;SDS011;19126;47.472;7.850;2023-04-05T14:19:44;8.90;;;6.13;;
32760;SDS011;19126;47.472;7.850;2023-04-05T14:22:11;10.73;;;6.50;;
32760;SDS011;19126;47.472;7.850;2023-04-05T14:24:40;11.70;;;6.68;;
32760;SDS011;19126;47.472;7.850;2023-04-05T14:27:07;10.52;;;6.18;;
32760;SDS011;19126;47.472;7.850;2023-04-05T14:29:35;13.73;;;6.30;;
32760;SDS011;19126;47.472;7.850;2023-04-05T14:32:05;9.65;;;6.78;;
32760;SDS011;19126;47.472;7.850;2023-04-05T14:34:32;13.32;;;6.38;;
32760;SDS011;19126;47.472;7.850;2023-04-05T14:37:03;11.23;;;6.50;;
32760;SDS011;19126;47.472;7.850;2023-04-05T14:39:30;7.60;;;5.90;;
32760;SDS011;19126;47.472;7.850;2023-04-05T14:41:59;14.07;;;6.57;;
32760;SDS011;19126;47.472;7.850;2023-04-05T14:44:27;11.98;;;6.85;;
32760;SDS011;19126;47.472;7.850;2023-04-05T14:46:57;9.07;;;6.15;;
32760;SDS011;19126;47.472;7.850;2023-04-05T14:49:27;16.48;;;6.60;;
32760;SDS011;19126;47.472;7.850;2023-04-05T14:51:54;12.90;;;6.55;;
32760;SDS011;19126;47.472;7.850;2023-04-05T14:54:22;12.88;;;5.47;;
32760;SDS011;19126;47.472;7.850;2023-04-05T14:56:49;9.55;;;6.13;;
32760;SDS011;19126;47.472;7.850;2023-04-05T14:59:18;16.88;;;6.78;;
32760;SDS011;19126;47.472;7.850;2023-04-05T15:01:46;18.85;;;6.93;;